Santo Domingo, Dominican Republic
Current Conditions -  °F | °C
As of 4:00 PM on Friday 31 Oct 2014 (Local Time) from MDSD Reporting Station
Few Clouds Few Clouds  
Wind Chill: 90°   Ceiling: Unl
Heat Index: 100°   Visibility: 6mi
Dew Point: 75°   Wind: 9mph
Humidity: 62%   Direction: 160°SSE
Pressure: 29.8"   Gusts: NA
Location:  18.48°N, 69.91°W
Report Text: MDSD 312000Z 16008KT 9999 FEW020CB FEW022 32/24 Q1009 CB/E/W/NW
Loading
Personal Weather Stations






























Interactive Weather Map New forecast layout! Learn more

10-Day Weather Forecast

Advertisements
Track Severe Weather on mobile